Time;durP1;ratioP1;P1;durP2;ratioP2;P2;SDS_P1;SDS_P2;PMS_P1;PMS_P2;Temp;Humidity;BMP_temperature;BMP_pressure;BME280_temperature;BME280_humidity;BME280_pressure;Samples;Min_cycle;Max_cycle;Signal;HPM_P1;HPM_P2
2021/01/19 00:00:56;;;;;;;;;;;;;;;2.71;87.47;101321.63;4982434;28;1957;-78
2021/01/19 00:03:21;;;;;;;;;;;;;;;2.72;87.26;101319.72;4986772;28;925;-78
2021/01/19 00:05:47;;;;;;;;;;;;;;;2.74;87.18;101314.81;4981370;28;1360;-79
2021/01/19 00:08:12;;;;;;;;;;;;;;;2.76;87.03;101312.59;4981849;28;1354;-79
2021/01/19 00:10:37;;;;;;;;;;;;;;;2.75;87.69;101313.69;4981714;28;866;-79
2021/01/19 00:13:02;;;;;;;;;;;;;;;2.75;88.01;101308.25;4982504;28;980;-79
2021/01/19 00:15:28;;;;;;;;;;;;;;;2.76;87.11;101302.50;4983117;28;988;-79
2021/01/19 00:17:53;;;;;;;;;;;;;;;2.77;87.34;101300.63;4982034;28;1275;-79
2021/01/19 00:20:19;;;;;;;;;;;;;;;2.79;86.97;101299.22;4981904;28;1894;-79
2021/01/19 00:22:44;;;;;;;;;;;;;;;2.81;87.20;101290.78;4982279;28;938;-78
2021/01/19 00:25:10;;;;;;;;;;;;;;;2.79;87.91;101287.50;4982667;28;1120;-79
2021/01/19 00:27:35;;;;;;;;;;;;;;;2.79;87.96;101282.06;4982545;28;1389;-78
2021/01/19 00:30:01;;;;;;;;;;;;;;;2.82;88.10;101289.66;4981019;28;981;-79
2021/01/19 00:32:26;;;;;;;;;;;;;;;2.86;87.94;101274.38;4980715;28;1333;-79
2021/01/19 00:34:51;;;;;;;;;;;;;;;2.87;87.32;101269.72;4980999;28;893;-78
2021/01/19 00:37:17;;;;;;;;;;;;;;;2.86;87.96;101274.38;4980749;28;1290;-79
2021/01/19 00:39:42;;;;;;;;;;;;;;;2.84;88.02;101265.66;4981169;28;1890;-78
2021/01/19 00:42:07;;;;;;;;;;;;;;;2.82;87.55;101248.75;4972808;28;1894;-79
2021/01/19 00:44:33;;;;;;;;;;;;;;;2.76;88.19;101260.78;4980941;28;995;-78
2021/01/19 00:46:58;;;;;;;;;;;;;;;2.76;88.13;101253.41;4981229;28;904;-78
2021/01/19 00:49:23;;;;;;;;;;;;;;;2.77;88.26;101244.16;4980489;28;1275;-78
2021/01/19 00:51:48;;;;;;;;;;;;;;;2.80;88.04;101243.59;4980292;28;2045;-79
2021/01/19 00:54:14;;;;;;;;;;;;;;;2.80;88.84;101226.41;4981888;28;867;-79
2021/01/19 00:56:42;;;;;;;;;;;;;;;2.77;88.33;101222.34;4984414;28;971;-78
2021/01/19 00:59:08;;;;;;;;;;;;;;;2.77;88.67;101224.25;4983766;28;1247;-78
2021/01/19 01:01:35;;;;;;;;;;;;;;;2.76;88.54;101226.16;4980595;28;2046;-79
2021/01/19 01:04:01;;;;;;;;;;;;;;;2.79;89.00;101222.84;4980774;28;921;-78
2021/01/19 01:06:26;;;;;;;;;;;;;;;2.81;89.28;101217.94;4979027;28;1144;-78
2021/01/19 01:08:52;;;;;;;;;;;;;;;2.80;89.18;101216.31;4980819;28;1235;-78
2021/01/19 01:11:18;;;;;;;;;;;;;;;2.81;89.46;101198.03;4979772;28;1828;-78
2021/01/19 01:13:44;;;;;;;;;;;;;;;2.83;89.36;101196.63;4980536;28;1943;-78
2021/01/19 01:16:11;;;;;;;;;;;;;;;2.85;89.31;101190.09;4980035;28;1946;-78
2021/01/19 01:18:36;;;;;;;;;;;;;;;2.83;89.04;101171.28;4979467;28;1357;-78
2021/01/19 01:21:02;;;;;;;;;;;;;;;2.84;89.11;101175.66;4980299;28;1898;-78
2021/01/19 01:23:27;;;;;;;;;;;;;;;2.88;88.63;101168.53;4984004;28;2012;-78
2021/01/19 01:25:53;;;;;;;;;;;;;;;2.89;88.33;101170.16;4979977;28;881;-78
2021/01/19 01:28:19;;;;;;;;;;;;;;;2.91;88.33;101172.63;4979799;28;1283;-79
2021/01/19 01:30:44;;;;;;;;;;;;;;;2.95;88.38;101166.28;4979920;28;2066;-78
2021/01/19 01:33:09;;;;;;;;;;;;;;;2.97;88.25;101160.56;4980400;28;889;-78
2021/01/19 01:35:35;;;;;;;;;;;;;;;2.97;88.52;101152.38;4979152;28;1121;-78
2021/01/19 01:38:00;;;;;;;;;;;;;;;2.98;87.74;101143.09;4979434;28;1269;-78
2021/01/19 01:40:27;;;;;;;;;;;;;;;3.00;87.49;101151.81;4978507;28;2100;-78
2021/01/19 01:42:57;;;;;;;;;;;;;;;2.98;87.64;101138.44;4979770;28;979;-79
2021/01/19 01:45:25;;;;;;;;;;;;;;;3.04;87.77;101135.69;4979613;28;897;-78
2021/01/19 01:47:52;;;;;;;;;;;;;;;3.04;87.30;101124.75;4978940;28;2017;-79
2021/01/19 01:50:18;;;;;;;;;;;;;;;3.04;87.24;101122.84;4979687;28;810;-79
2021/01/19 01:52:45;;;;;;;;;;;;;;;3.04;87.81;101122.84;4979319;28;901;-78
2021/01/19 01:55:10;;;;;;;;;;;;;;;3.08;87.48;101123.06;4978956;28;850;-78
2021/01/19 01:57:38;;;;;;;;;;;;;;;3.09;87.41;101108.34;4978471;28;1977;-78
2021/01/19 02:00:05;;;;;;;;;;;;;;;3.11;87.25;101106.94;4979107;28;1899;-78
2021/01/19 02:02:31;;;;;;;;;;;;;;;3.11;87.23;101114.31;4979038;28;873;-78
2021/01/19 02:04:56;;;;;;;;;;;;;;;3.08;86.88;101107.53;4978711;28;913;-78
2021/01/19 02:07:47;;;;;;;;;;;;;;;3.10;87.52;101096.34;4978409;28;1789;-78
2021/01/19 02:10:21;;;;;;;;;;;;;;;3.11;87.44;101103.41;4964817;28;2007;-78
2021/01/19 02:13:06;;;;;;;;;;;;;;;3.09;87.81;101089.25;4981232;28;1079;-77
2021/01/19 02:15:40;;;;;;;;;;;;;;;3.11;86.95;101078.84;4979460;28;867;-78
2021/01/19 02:18:20;;;;;;;;;;;;;;;3.12;88.13;101069.56;4978589;28;2076;-78
2021/01/19 02:21:03;;;;;;;;;;;;;;;3.08;88.50;101068.50;4979293;28;1964;-78
2021/01/19 02:23:53;;;;;;;;;;;;;;;3.00;89.01;101062.56;4979140;28;1001;-78
2021/01/19 02:26:41;;;;;;;;;;;;;;;2.94;90.00;101054.72;4979173;28;1820;-78
2021/01/19 02:29:28;;;;;;;;;;;;;;;2.87;90.68;101041.41;4978409;28;1264;-78
2021/01/19 02:32:21;;;;;;;;;;;;;;;2.82;90.85;101036.84;4978431;28;849;-78
2021/01/19 02:34:56;;;;;;;;;;;;;;;2.79;91.69;101028.41;4978006;28;1966;-78
2021/01/19 02:37:30;;;;;;;;;;;;;;;2.76;91.95;101026.25;4978066;28;1424;-78
2021/01/19 02:40:08;;;;;;;;;;;;;;;2.77;91.99;101008.81;4977982;28;1898;-78
2021/01/19 02:42:51;;;;;;;;;;;;;;;2.72;92.14;101006.94;4977678;28;908;-78
2021/01/19 02:45:17;;;;;;;;;;;;;;;2.70;91.67;100998.22;4977779;28;1965;-78
2021/01/19 02:47:42;;;;;;;;;;;;;;;2.68;92.14;100985.97;4978055;28;1385;-77
2021/01/19 02:50:09;;;;;;;;;;;;;;;2.64;92.96;100985.72;4977944;28;864;-78
2021/01/19 02:52:37;;;;;;;;;;;;;;;2.63;92.72;100979.47;4978027;28;917;-77
2021/01/19 02:55:04;;;;;;;;;;;;;;;2.59;93.49;100970.22;4977004;28;2031;-77
2021/01/19 02:57:53;;;;;;;;;;;;;;;2.60;93.65;100957.44;4976980;28;1267;-77
2021/01/19 03:00:21;;;;;;;;;;;;;;;2.60;93.63;100962.88;4977459;28;1890;-78
2021/01/19 03:02:51;;;;;;;;;;;;;;;2.59;93.38;100947.59;4977876;28;1013;-78
2021/01/19 03:05:17;;;;;;;;;;;;;;;2.62;93.33;100941.59;4977808;28;2080;-78
2021/01/19 03:07:44;;;;;;;;;;;;;;;2.61;93.84;100939.94;4977747;28;1283;-78
2021/01/19 03:10:12;;;;;;;;;;;;;;;2.63;93.74;100935.84;4978599;28;1020;-78
2021/01/19 03:12:45;;;;;;;;;;;;;;;2.68;94.14;100940.41;4978431;28;960;-78
2021/01/19 03:15:14;;;;;;;;;;;;;;;2.66;93.57;100928.19;4978020;28;2057;-78
2021/01/19 03:17:41;;;;;;;;;;;;;;;2.68;94.19;100931.44;4978738;28;1286;-77
2021/01/19 03:20:07;;;;;;;;;;;;;;;2.67;93.95;100925.19;4976088;28;1894;-77
2021/01/19 03:22:34;;;;;;;;;;;;;;;2.69;94.34;100912.06;4975980;28;1160;-77
2021/01/19 03:24:59;;;;;;;;;;;;;;;2.72;93.69;100916.13;4980141;28;1959;-78
2021/01/19 03:27:25;;;;;;;;;;;;;;;2.75;93.76;100897.28;4977603;28;1275;-78
2021/01/19 03:29:50;;;;;;;;;;;;;;;2.74;94.30;100901.09;4977560;28;1044;-78
2021/01/19 03:32:15;;;;;;;;;;;;;;;2.75;94.35;100885.53;4978387;28;1052;-78
2021/01/19 03:34:40;;;;;;;;;;;;;;;2.83;93.87;100893.91;4977068;28;2058;-78
2021/01/19 03:37:06;;;;;;;;;;;;;;;2.82;93.94;100883.28;4976497;28;1831;-78
2021/01/19 03:39:31;;;;;;;;;;;;;;;2.83;93.64;100882.19;4977148;28;1409;-78
2021/01/19 03:41:57;;;;;;;;;;;;;;;2.81;94.18;100881.66;4976793;28;1953;-78
2021/01/19 03:44:23;;;;;;;;;;;;;;;2.82;94.35;100878.66;4976674;28;811;-78
2021/01/19 03:46:49;;;;;;;;;;;;;;;2.82;93.91;100877.81;4974905;28;2201;-77
2021/01/19 03:49:14;;;;;;;;;;;;;;;2.80;94.06;100864.50;4976579;28;1311;-77
2021/01/19 03:51:40;;;;;;;;;;;;;;;2.82;94.37;100865.03;4976585;28;914;-77
2021/01/19 03:54:05;;;;;;;;;;;;;;;2.83;94.27;100860.38;4975494;28;1406;-77
2021/01/19 03:56:30;;;;;;;;;;;;;;;2.83;93.80;100861.16;4976375;28;1721;-77
2021/01/19 03:58:56;;;;;;;;;;;;;;;2.82;94.60;100851.38;4976018;28;1341;-77
2021/01/19 04:01:21;;;;;;;;;;;;;;;2.83;94.43;100836.63;4975653;28;1898;-76
2021/01/19 04:03:46;;;;;;;;;;;;;;;2.84;94.01;100837.47;4976639;28;952;-77
2021/01/19 04:06:12;;;;;;;;;;;;;;;2.82;94.46;100826.84;4976438;28;2116;-77
2021/01/19 04:08:38;;;;;;;;;;;;;;;2.83;94.09;100819.47;4976251;28;1275;-77
2021/01/19 04:11:07;;;;;;;;;;;;;;;2.85;94.63;100819.97;4981226;28;857;-77
2021/01/19 04:13:32;;;;;;;;;;;;;;;2.87;93.99;100816.94;4976248;28;792;-77
2021/01/19 04:15:58;;;;;;;;;;;;;;;2.84;93.94;100802.00;4976663;28;1974;-77
2021/01/19 04:18:24;;;;;;;;;;;;;;;2.82;94.35;100796.84;4976423;28;1883;-77
2021/01/19 04:20:50;;;;;;;;;;;;;;;2.80;94.30;100781.84;4977039;28;1898;-77
2021/01/19 04:23:16;;;;;;;;;;;;;;;2.78;94.52;100775.88;4977235;28;1056;-77
2021/01/19 04:25:45;;;;;;;;;;;;;;;2.80;93.84;100782.69;4976048;28;804;-77
2021/01/19 04:28:11;;;;;;;;;;;;;;;2.79;94.42;100766.63;4980855;28;2048;-76
2021/01/19 04:30:38;;;;;;;;;;;;;;;2.77;94.13;100764.19;4979786;28;1000;-77
2021/01/19 04:33:04;;;;;;;;;;;;;;;2.77;94.32;100757.91;4977298;28;822;-77
2021/01/19 04:35:29;;;;;;;;;;;;;;;2.73;94.11;100751.41;4983835;28;1096;-77
2021/01/19 04:37:54;;;;;;;;;;;;;;;2.71;93.99;100748.16;4983721;28;1898;-76
2021/01/19 04:40:20;;;;;;;;;;;;;;;2.73;94.58;100743.22;4984207;28;1940;-78
2021/01/19 04:42:46;;;;;;;;;;;;;;;2.69;94.26;100732.09;4985065;28;1099;-77
2021/01/19 04:45:11;;;;;;;;;;;;;;;2.68;94.92;100735.91;4983727;28;1020;-77
2021/01/19 04:47:38;;;;;;;;;;;;;;;2.69;94.05;100718.47;4988605;28;1927;-77
2021/01/19 04:50:06;;;;;;;;;;;;;;;2.69;94.60;100729.38;4988796;28;1048;-77
2021/01/19 04:52:33;;;;;;;;;;;;;;;2.64;94.38;100692.06;4990035;28;1071;-77
2021/01/19 04:55:12;;;;;;;;;;;;;;;2.64;94.24;100688.56;4990153;28;1054;-77
2021/01/19 04:57:40;;;;;;;;;;;;;;;2.64;94.36;100670.25;4990117;28;2042;-77
2021/01/19 05:00:14;;;;;;;;;;;;;;;2.65;94.24;100652.00;4983793;28;1902;-77
2021/01/19 05:02:40;;;;;;;;;;;;;;;2.60;94.85;100638.44;4978720;28;1295;-77
2021/01/19 05:05:21;;;;;;;;;;;;;;;2.56;94.40;100640.97;4979490;28;838;-77
2021/01/19 05:08:18;;;;;;;;;;;;;;;2.56;94.62;100640.97;4978525;28;1745;-77
2021/01/19 05:11:01;;;;;;;;;;;;;;;2.57;94.76;100634.38;4978824;28;1176;-77
2021/01/19 05:13:41;;;;;;;;;;;;;;;2.52;94.64;100630.94;4979489;28;905;-77
2021/01/19 05:16:11;;;;;;;;;;;;;;;2.51;95.30;100629.31;4979377;28;869;-78
2021/01/19 05:18:38;;;;;;;;;;;;;;;2.50;94.69;100633.16;4958848;29;1382;-78
2021/01/19 05:21:03;;;;;;;;;;;;;;;2.52;94.74;100629.00;4959406;28;1957;-77
2021/01/19 05:23:29;;;;;;;;;;;;;;;2.51;94.91;100632.03;4959979;29;937;-77
2021/01/19 05:26:02;;;;;;;;;;;;;;;2.52;94.19;100630.94;4960033;29;900;-77
2021/01/19 05:28:39;;;;;;;;;;;;;;;2.49;94.27;100620.63;4978215;28;2114;-77
2021/01/19 05:31:14;;;;;;;;;;;;;;;2.46;94.74;100613.84;4979137;28;900;-77
2021/01/19 05:33:39;;;;;;;;;;;;;;;2.44;94.71;100616.06;4979275;28;997;-77
2021/01/19 05:36:07;;;;;;;;;;;;;;;2.44;94.16;100605.16;4980410;28;925;-77
2021/01/19 05:38:51;;;;;;;;;;;;;;;2.42;94.41;100597.28;4978605;28;1997;-78
2021/01/19 05:41:30;;;;;;;;;;;;;;;2.42;94.51;100591.81;4979585;28;1907;-77
2021/01/19 05:44:07;;;;;;;;;;;;;;;2.42;94.98;100580.94;4979334;28;952;-77
2021/01/19 05:46:33;;;;;;;;;;;;;;;2.39;94.46;100591.63;4979057;28;2013;-77
2021/01/19 05:49:00;;;;;;;;;;;;;;;2.38;94.76;100574.44;4977839;28;2005;-77
2021/01/19 05:51:31;;;;;;;;;;;;;;;2.39;94.61;100576.06;4982673;28;796;-78
2021/01/19 05:53:59;;;;;;;;;;;;;;;2.37;94.99;100582.91;4979081;28;1365;-78
2021/01/19 05:56:27;;;;;;;;;;;;;;;2.36;95.14;100567.66;4978209;28;1748;-78
2021/01/19 05:58:52;;;;;;;;;;;;;;;2.38;94.77;100565.44;4977644;28;1447;-78
2021/01/19 06:01:29;;;;;;;;;;;;;;;2.40;95.19;100561.31;4978503;28;1961;-77
2021/01/19 06:04:02;;;;;;;;;;;;;;;2.40;94.86;100560.50;4978519;28;849;-77
2021/01/19 06:06:29;;;;;;;;;;;;;;;2.40;94.50;100546.88;4977369;28;1995;-78
2021/01/19 06:08:59;;;;;;;;;;;;;;;2.38;94.89;100541.72;4978035;28;1271;-77
2021/01/19 06:11:26;;;;;;;;;;;;;;;2.37;94.93;100551.03;4978666;28;854;-77
2021/01/19 06:13:52;;;;;;;;;;;;;;;2.40;94.68;100544.16;4977976;28;797;-77
2021/01/19 06:16:22;;;;;;;;;;;;;;;2.37;95.36;100542.84;4978557;28;1989;-79
2021/01/19 06:18:47;;;;;;;;;;;;;;;2.39;94.79;100537.09;4958904;29;1332;-79
2021/01/19 06:21:29;;;;;;;;;;;;;;;2.39;95.35;100527.00;4958710;28;1962;-78
2021/01/19 06:23:54;;;;;;;;;;;;;;;2.42;94.56;100533.78;4985486;28;1790;-78
2021/01/19 06:26:20;;;;;;;;;;;;;;;2.40;94.37;100522.34;4978463;28;2045;-78
2021/01/19 06:28:45;;;;;;;;;;;;;;;2.37;95.01;100521.03;4976619;28;1259;-78
2021/01/19 06:31:15;;;;;;;;;;;;;;;2.40;94.80;100509.53;4977625;28;1950;-77
2021/01/19 06:33:41;;;;;;;;;;;;;;;2.41;95.38;100504.91;4977870;28;852;-77
2021/01/19 06:36:08;;;;;;;;;;;;;;;2.43;94.52;100499.97;4977707;28;1041;-78
2021/01/19 06:38:34;;;;;;;;;;;;;;;2.42;94.56;100498.34;4977635;28;1350;-78
2021/01/19 06:41:02;;;;;;;;;;;;;;;2.45;94.50;100492.31;4977998;28;2336;-78
2021/01/19 06:43:37;;;;;;;;;;;;;;;2.47;94.76;100484.63;4958415;28;866;-78
2021/01/19 06:46:07;;;;;;;;;;;;;;;2.43;95.11;100465.34;4958284;28;933;-77
2021/01/19 06:48:34;;;;;;;;;;;;;;;2.43;94.56;100475.44;4958667;28;1263;-78
2021/01/19 06:51:01;;;;;;;;;;;;;;;2.43;94.62;100462.63;4971794;28;2023;-77
2021/01/19 06:53:44;;;;;;;;;;;;;;;2.42;95.47;100443.84;4980758;28;2111;-77
2021/01/19 06:56:12;;;;;;;;;;;;;;;2.42;95.38;100438.38;4977832;28;782;-77
2021/01/19 06:58:53;;;;;;;;;;;;;;;2.40;95.58;100441.41;4978042;28;1263;-78
2021/01/19 07:01:23;;;;;;;;;;;;;;;2.40;95.27;100430.50;4977498;28;2108;-77
2021/01/19 07:04:02;;;;;;;;;;;;;;;2.41;95.76;100423.16;4982042;28;847;-78
2021/01/19 07:06:55;;;;;;;;;;;;;;;2.40;95.05;100416.06;4978026;28;997;-78
2021/01/19 07:09:58;;;;;;;;;;;;;;;2.40;95.17;100419.59;4977321;28;2104;-79
2021/01/19 07:12:36;;;;;;;;;;;;;;;2.42;94.51;100402.97;4977794;28;1036;-79
2021/01/19 07:15:01;;;;;;;;;;;;;;;2.40;95.29;100413.34;4977911;28;889;-79
2021/01/19 07:18:02;;;;;;;;;;;;;;;2.38;95.43;100374.69;4978946;28;1295;-78
2021/01/19 07:20:32;;;;;;;;;;;;;;;2.40;94.97;100389.63;4977550;28;1961;-78
2021/01/19 07:22:59;;;;;;;;;;;;;;;2.40;94.75;100386.91;4977628;28;1053;-78
2021/01/19 07:25:26;;;;;;;;;;;;;;;2.47;94.71;100370.16;4977227;28;2625;-77
2021/01/19 07:27:53;;;;;;;;;;;;;;;2.43;95.15;100363.72;4976562;28;1971;-78
2021/01/19 07:30:20;;;;;;;;;;;;;;;2.39;94.95;100377.13;4977726;28;1844;-79
2021/01/19 07:32:50;;;;;;;;;;;;;;;2.42;95.12;100360.19;4980221;28;870;-79
2021/01/19 07:35:16;;;;;;;;;;;;;;;2.47;94.92;100370.16;4978669;28;881;-78
2021/01/19 07:37:41;;;;;;;;;;;;;;;2.42;95.47;100357.47;4977397;28;2004;-78
2021/01/19 07:40:20;;;;;;;;;;;;;;;2.42;95.15;100360.19;4977519;28;1902;-78
2021/01/19 07:42:46;;;;;;;;;;;;;;;2.43;95.48;100356.34;4977839;28;870;-78
2021/01/19 07:45:12;;;;;;;;;;;;;;;2.42;95.68;100345.72;4977692;28;901;-78
2021/01/19 07:47:41;;;;;;;;;;;;;;;2.39;95.67;100349.06;4976628;28;1723;-78
2021/01/19 07:50:10;;;;;;;;;;;;;;;2.41;95.51;100336.75;4977622;28;1064;-78
2021/01/19 07:52:38;;;;;;;;;;;;;;;2.43;95.72;100336.47;4977131;28;2128;-77
2021/01/19 07:55:14;;;;;;;;;;;;;;;2.43;95.34;100331.81;4977928;28;914;-78
2021/01/19 07:57:43;;;;;;;;;;;;;;;2.43;96.10;100342.72;4976273;28;1816;-78
2021/01/19 08:00:11;;;;;;;;;;;;;;;2.44;96.14;100330.72;4977457;28;1982;-78
2021/01/19 08:02:36;;;;;;;;;;;;;;;2.45;95.94;100331.50;4978260;28;1401;-79
2021/01/19 08:05:06;;;;;;;;;;;;;;;2.46;95.32;100319.50;4979088;28;2125;-79
2021/01/19 08:07:43;;;;;;;;;;;;;;;2.49;95.70;100318.09;4976720;28;1971;-79
2021/01/19 08:10:21;;;;;;;;;;;;;;;2.52;95.21;100320.22;4978541;28;1993;-79
2021/01/19 08:12:48;;;;;;;;;;;;;;;2.51;95.90;100311.22;4977995;28;857;-79
2021/01/19 08:15:18;;;;;;;;;;;;;;;2.54;95.87;100290.72;4978633;28;865;-78
2021/01/19 08:17:50;;;;;;;;;;;;;;;2.53;95.50;100305.47;4981067;28;1844;-78
2021/01/19 08:20:31;;;;;;;;;;;;;;;2.53;95.47;100289.13;4980484;28;1906;-78
2021/01/19 08:23:13;;;;;;;;;;;;;;;2.56;95.43;100293.94;4981039;28;846;-78
2021/01/19 08:25:40;;;;;;;;;;;;;;;2.57;95.54;100293.66;4981190;28;786;-78
2021/01/19 08:28:06;;;;;;;;;;;;;;;2.57;95.95;100277.28;4981230;28;2030;-79
2021/01/19 08:30:32;;;;;;;;;;;;;;;2.58;95.33;100284.38;4980971;28;844;-78
2021/01/19 08:32:59;;;;;;;;;;;;;;;2.61;95.48;100270.16;4978031;28;2021;-79
2021/01/19 08:35:27;;;;;;;;;;;;;;;2.63;95.93;100276.09;4979685;28;2020;-78
2021/01/19 08:37:58;;;;;;;;;;;;;;;2.63;95.74;100262.47;4981189;28;1306;-78
2021/01/19 08:40:28;;;;;;;;;;;;;;;2.68;95.11;100266.97;4981325;28;2206;-78
2021/01/19 08:42:55;;;;;;;;;;;;;;;2.71;95.26;100251.94;4975389;28;941;-78
2021/01/19 08:45:41;;;;;;;;;;;;;;;2.70;95.68;100258.50;4962441;28;1828;-77
2021/01/19 08:48:09;;;;;;;;;;;;;;;2.71;95.63;100252.75;4980513;28;1393;-78
2021/01/19 08:50:36;;;;;;;;;;;;;;;2.74;95.38;100256.81;4981470;28;820;-79
2021/01/19 08:53:14;;;;;;;;;;;;;;;2.73;95.65;100244.28;4980907;28;1962;-78
2021/01/19 08:55:44;;;;;;;;;;;;;;;2.76;95.82;100254.56;4981698;28;1938;-78
2021/01/19 08:58:18;;;;;;;;;;;;;;;2.77;95.82;100234.38;4981093;28;1306;-79
2021/01/19 09:00:43;;;;;;;;;;;;;;;2.79;95.87;100245.78;4981654;28;1962;-78
2021/01/19 09:03:11;;;;;;;;;;;;;;;2.82;94.83;100240.53;4980165;28;1903;-78
2021/01/19 09:05:36;;;;;;;;;;;;;;;2.84;95.00;100232.03;4980651;28;1020;-78
2021/01/19 09:08:15;;;;;;;;;;;;;;;2.83;95.30;100225.75;4980807;28;1740;-79
2021/01/19 09:10:41;;;;;;;;;;;;;;;2.85;95.54;100217.28;4981885;28;858;-78
2021/01/19 09:13:07;;;;;;;;;;;;;;;2.88;95.33;100199.50;4980320;28;2010;-78
2021/01/19 09:15:43;;;;;;;;;;;;;;;2.88;95.34;100213.94;4981939;28;918;-78
2021/01/19 09:18:15;;;;;;;;;;;;;;;2.89;95.40;100199.22;4980583;28;1269;-79
2021/01/19 09:20:42;;;;;;;;;;;;;;;2.91;95.37;100191.50;4981599;28;1894;-78
2021/01/19 09:23:15;;;;;;;;;;;;;;;2.90;94.99;100184.44;4979411;28;1970;-78
2021/01/19 09:25:40;;;;;;;;;;;;;;;2.91;94.53;100196.97;4981804;28;853;-78
2021/01/19 09:28:06;;;;;;;;;;;;;;;2.91;94.98;100188.78;4981870;28;2080;-79
2021/01/19 09:30:35;;;;;;;;;;;;;;;2.94;94.59;100180.00;4989219;28;798;-78
2021/01/19 09:33:08;;;;;;;;;;;;;;;2.96;94.98;100169.56;4979184;28;1922;-79
2021/01/19 09:35:35;;;;;;;;;;;;;;;2.96;95.02;100172.31;4982302;28;1136;-79
2021/01/19 09:38:01;;;;;;;;;;;;;;;2.98;95.38;100174.72;4980255;28;1970;-79
2021/01/19 09:40:34;;;;;;;;;;;;;;;3.03;95.34;100168.31;4981468;28;1894;-79
2021/01/19 09:43:05;;;;;;;;;;;;;;;2.99;94.73;100152.59;4980433;28;1851;-79
2021/01/19 09:45:30;;;;;;;;;;;;;;;3.00;94.77;100167.03;4980520;28;952;-78
2021/01/19 09:47:57;;;;;;;;;;;;;;;3.04;94.70;100159.03;4979393;28;1291;-78
2021/01/19 09:50:22;;;;;;;;;;;;;;;3.05;94.56;100145.09;4981766;28;869;-79
2021/01/19 09:52:47;;;;;;;;;;;;;;;3.09;94.62;100135.16;4980179;28;1582;-78
2021/01/19 09:55:16;;;;;;;;;;;;;;;3.13;94.50;100136.16;4979769;28;1984;-78
2021/01/19 09:57:41;;;;;;;;;;;;;;;3.15;94.76;100135.84;4980247;28;1381;-78
2021/01/19 10:00:09;;;;;;;;;;;;;;;3.14;95.15;100135.03;4978807;28;1870;-78
2021/01/19 10:02:35;;;;;;;;;;;;;;;3.14;95.22;100120.59;4979850;28;861;-79
2021/01/19 10:05:03;;;;;;;;;;;;;;;3.15;95.14;100119.47;4980576;28;1055;-79
2021/01/19 10:07:29;;;;;;;;;;;;;;;3.16;94.69;100123.81;4981188;28;1381;-79
2021/01/19 10:10:14;;;;;;;;;;;;;;;3.19;95.11;100113.09;4980102;28;2099;-78
2021/01/19 10:12:40;;;;;;;;;;;;;;;3.23;94.98;100120.66;4980850;28;861;-79
2021/01/19 10:15:12;;;;;;;;;;;;;;;3.20;94.31;100109.25;4980797;28;2076;-78
2021/01/19 10:17:38;;;;;;;;;;;;;;;3.22;94.92;100105.38;4977916;28;1838;-79
2021/01/19 10:20:14;;;;;;;;;;;;;;;3.27;95.08;100106.09;4978670;28;2179;-79
2021/01/19 10:22:48;;;;;;;;;;;;;;;3.28;95.00;100094.03;4978906;28;1234;-78
2021/01/19 10:25:28;;;;;;;;;;;;;;;3.30;94.77;100094.53;4978633;28;1688;-78
2021/01/19 10:27:59;;;;;;;;;;;;;;;3.27;95.05;100100.63;4977756;28;1291;-78
2021/01/19 10:30:32;;;;;;;;;;;;;;;3.26;94.90;100088.09;4978243;28;893;-78
2021/01/19 10:32:58;;;;;;;;;;;;;;;3.30;95.16;100072.69;4978435;28;802;-77
2021/01/19 10:35:29;;;;;;;;;;;;;;;3.30;95.17;100085.53;4977158;28;1238;-78
2021/01/19 10:38:06;;;;;;;;;;;;;;;3.33;95.30;100071.28;4976060;28;2178;-78
2021/01/19 10:40:33;;;;;;;;;;;;;;;3.35;95.17;100077.22;4967574;28;1883;-77
2021/01/19 10:43:11;;;;;;;;;;;;;;;3.37;94.51;100073.06;4974515;28;1777;-78
2021/01/19 10:45:42;;;;;;;;;;;;;;;3.40;94.59;100057.97;4978964;28;1998;-78
2021/01/19 10:48:20;;;;;;;;;;;;;;;3.43;95.01;100067.47;4978235;28;1865;-79
2021/01/19 10:50:46;;;;;;;;;;;;;;;3.48;95.36;100061.84;4979770;28;1894;-78
2021/01/19 10:53:11;;;;;;;;;;;;;;;3.49;94.61;100066.19;4979318;28;1846;-78
2021/01/19 10:55:36;;;;;;;;;;;;;;;3.47;95.35;100055.59;4978643;28;993;-78
2021/01/19 10:58:04;;;;;;;;;;;;;;;3.49;95.30;100047.09;4968303;28;1430;-78
2021/01/19 11:00:30;;;;;;;;;;;;;;;3.51;94.75;100042.13;4958332;29;1953;-78
2021/01/19 11:02:58;;;;;;;;;;;;;;;3.49;95.41;100028.78;4977452;28;2151;-78
2021/01/19 11:05:24;;;;;;;;;;;;;;;3.59;95.30;100033.16;4978487;28;1973;-79
2021/01/19 11:07:51;;;;;;;;;;;;;;;3.64;95.17;100030.28;4958621;28;1370;-79
2021/01/19 11:10:20;;;;;;;;;;;;;;;3.67;94.74;100026.09;4960639;28;1979;-80
2021/01/19 11:12:46;;;;;;;;;;;;;;;3.65;94.64;100036.53;4976186;28;2693;-77
2021/01/19 11:15:12;;;;;;;;;;;;;;;3.64;94.80;100032.22;4981257;28;1408;-78
2021/01/19 11:17:38;;;;;;;;;;;;;;;3.69;95.12;100029.34;4977519;28;1294;-78
2021/01/19 11:20:08;;;;;;;;;;;;;;;3.72;95.13;100015.03;4977774;28;833;-78
2021/01/19 11:22:34;;;;;;;;;;;;;;;3.74;95.37;100027.25;4977320;28;1120;-78
2021/01/19 11:25:00;;;;;;;;;;;;;;;3.75;95.27;100028.06;4977184;28;1773;-77
2021/01/19 11:27:26;;;;;;;;;;;;;;;3.76;95.52;100024.22;4976341;28;1267;-77
2021/01/19 11:29:52;;;;;;;;;;;;;;;3.79;95.62;100025.50;4976613;28;818;-77
2021/01/19 11:32:17;;;;;;;;;;;;;;;3.81;95.44;100012.31;4976544;28;814;-77
2021/01/19 11:34:42;;;;;;;;;;;;;;;3.82;95.82;100016.69;4977127;28;945;-77
2021/01/19 11:37:08;;;;;;;;;;;;;;;3.86;95.40;100014.91;4975991;28;1825;-77
2021/01/19 11:39:33;;;;;;;;;;;;;;;3.90;95.55;100013.97;4976197;28;1354;-77
2021/01/19 11:41:59;;;;;;;;;;;;;;;3.94;95.28;100005.94;4976686;28;1910;-77
2021/01/19 11:44:24;;;;;;;;;;;;;;;3.97;95.71;100012.69;4977343;28;910;-78
2021/01/19 11:46:49;;;;;;;;;;;;;;;4.00;95.32;100007.41;4976837;28;2088;-78
2021/01/19 11:49:15;;;;;;;;;;;;;;;4.02;95.09;99991.47;4977582;28;1338;-78
2021/01/19 11:51:41;;;;;;;;;;;;;;;4.05;95.53;99993.59;4977298;28;1019;-77
2021/01/19 11:54:10;;;;;;;;;;;;;;;4.10;95.35;99990.69;4978258;28;884;-77
2021/01/19 11:56:43;;;;;;;;;;;;;;;4.14;95.67;99986.19;4978488;28;2020;-77
2021/01/19 11:59:10;;;;;;;;;;;;;;;4.19;95.11;99993.44;4977256;28;1446;-77
2021/01/19 12:01:37;;;;;;;;;;;;;;;4.23;95.53;99988.91;4976859;28;1894;-77
2021/01/19 12:04:03;;;;;;;;;;;;;;;4.28;95.67;99985.22;4977273;28;996;-78
2021/01/19 12:06:35;;;;;;;;;;;;;;;4.29;95.70;99982.16;4976579;28;1991;-77
2021/01/19 12:09:01;;;;;;;;;;;;;;;4.30;95.83;99986.50;4977339;28;1461;-77
2021/01/19 12:11:26;;;;;;;;;;;;;;;4.33;95.30;99983.13;4983468;28;799;-78
2021/01/19 12:13:52;;;;;;;;;;;;;;;4.37;95.71;99983.28;4977784;28;1824;-77
2021/01/19 12:16:22;;;;;;;;;;;;;;;4.44;95.68;99980.84;4976614;28;1359;-78
2021/01/19 12:18:49;;;;;;;;;;;;;;;4.48;95.54;99986.47;4976374;28;1791;-78
2021/01/19 12:21:15;;;;;;;;;;;;;;;4.54;95.42;99978.94;4976446;28;1894;-77
2021/01/19 12:23:45;;;;;;;;;;;;;;;4.53;95.84;99978.09;4977215;28;844;-78
2021/01/19 12:26:11;;;;;;;;;;;;;;;4.57;95.38;99981.00;4977999;28;893;-78
2021/01/19 12:28:36;;;;;;;;;;;;;;;4.62;95.81;99983.56;4976377;28;1584;-78
2021/01/19 12:31:02;;;;;;;;;;;;;;;4.62;95.63;99984.38;4978615;28;1036;-79
2021/01/19 12:33:27;;;;;;;;;;;;;;;4.66;95.69;99977.13;4978487;28;872;-78
2021/01/19 12:35:53;;;;;;;;;;;;;;;4.70;95.85;99985.47;4978991;28;899;-77
2021/01/19 12:38:19;;;;;;;;;;;;;;;4.76;95.36;99965.06;4976613;28;1993;-78
2021/01/19 12:40:44;;;;;;;;;;;;;;;4.80;95.63;99981.63;4976337;28;1956;-77
2021/01/19 12:43:10;;;;;;;;;;;;;;;4.85;95.33;99971.28;4976507;28;1880;-77
2021/01/19 12:45:37;;;;;;;;;;;;;;;4.89;95.77;99977.69;4976426;28;1760;-77
2021/01/19 12:48:04;;;;;;;;;;;;;;;4.93;95.63;99969.69;4976895;28;1840;-78
2021/01/19 12:50:30;;;;;;;;;;;;;;;5.00;95.44;99975.44;4977271;28;996;-78
2021/01/19 12:52:55;;;;;;;;;;;;;;;5.03;95.61;99965.75;4977732;28;957;-78
2021/01/19 12:55:21;;;;;;;;;;;;;;;5.06;95.34;99970.59;4976870;28;2002;-78
2021/01/19 12:57:46;;;;;;;;;;;;;;;5.14;95.53;99964.28;4977016;28;1275;-78
2021/01/19 13:00:12;;;;;;;;;;;;;;;5.19;95.35;99964.09;4979367;28;2114;-79
2021/01/19 13:02:37;;;;;;;;;;;;;;;5.22;95.54;99960.69;4975077;28;2108;-78
2021/01/19 13:05:04;;;;;;;;;;;;;;;5.30;95.47;99969.22;4974337;28;1832;-78
2021/01/19 13:07:30;;;;;;;;;;;;;;;5.38;95.41;99966.44;4980136;28;1291;-79
2021/01/19 13:09:55;;;;;;;;;;;;;;;5.45;95.57;99979.56;4984640;28;1008;-79